Terminal Aerodrome Forecast
Issued by NWS Charleston, SC

Home | Current Version | Previous Version | Text Only | Print | Product List | Glossary On
Versions: 1 2 3 4 5 6 7 8 9 10 11 12 13 14 15 16 17
377
FTUS42 KCHS 231738
TAFSAV
TAF
KSAV 231738Z 2318/2418 24006KT P6SM SCT035
     FM232200 19008KT P6SM SCT035 BKN060
     FM240400 23004KT P6SM BKN050=

USA.gov is the U.S. government's official web portal to all federal, state and local government web resources and services.